createdAt,value
2019-05-19T00:01:59.965Z,14.40
2019-05-19T00:04:30.211Z,14.40
2019-05-19T00:07:00.459Z,14.40
2019-05-19T00:09:30.652Z,14.40
2019-05-19T00:12:00.832Z,14.40
2019-05-19T00:14:31.051Z,14.40
2019-05-19T00:17:01.230Z,14.40
2019-05-19T00:19:31.575Z,14.40
2019-05-19T00:22:01.773Z,14.40
2019-05-19T00:24:32.117Z,14.40
2019-05-19T00:27:02.488Z,14.40
2019-05-19T00:29:32.721Z,14.40
2019-05-19T00:32:03.083Z,14.30
2019-05-19T00:34:33.284Z,14.40
2019-05-19T00:37:04.287Z,14.30
2019-05-19T00:39:34.553Z,14.30
2019-05-19T00:42:04.703Z,14.30
2019-05-19T00:44:34.977Z,14.30
2019-05-19T00:47:05.128Z,14.30
2019-05-19T00:49:41.335Z,14.30
2019-05-19T00:52:07.580Z,14.30
2019-05-19T00:54:37.776Z,14.30
2019-05-19T00:57:08.335Z,14.20
2019-05-19T00:59:40.019Z,14.20
2019-05-19T01:02:10.198Z,14.20
2019-05-19T01:04:40.431Z,14.20
2019-05-19T01:07:10.573Z,14.20
2019-05-19T01:09:40.745Z,14.10
2019-05-19T01:12:10.912Z,14.10
2019-05-19T01:14:41.076Z,14.10
2019-05-19T01:17:11.218Z,14.00
2019-05-19T01:19:54.954Z,14.00
2019-05-19T01:22:13.456Z,14.00
2019-05-19T01:24:43.617Z,14.00
2019-05-19T01:27:13.854Z,14.00
2019-05-19T01:29:44.031Z,14.00
2019-05-19T01:32:14.196Z,14.00
2019-05-19T01:34:44.384Z,13.90
2019-05-19T01:37:14.555Z,13.90
2019-05-19T01:39:44.724Z,14.00
2019-05-19T01:42:15.960Z,14.00
2019-05-19T01:44:46.116Z,14.00
2019-05-19T01:47:16.272Z,14.00
2019-05-19T01:49:46.432Z,14.10
2019-05-19T01:52:16.642Z,14.00
2019-05-19T01:54:46.805Z,14.00
2019-05-19T01:57:16.973Z,14.00
2019-05-19T01:59:47.131Z,14.00
2019-05-19T02:02:17.340Z,14.00
2019-05-19T02:04:47.515Z,14.00
2019-05-19T02:07:17.680Z,14.00
2019-05-19T02:09:47.884Z,14.00
2019-05-19T02:12:18.060Z,14.00
2019-05-19T02:14:48.219Z,14.00
2019-05-19T02:17:18.384Z,13.90
2019-05-19T02:19:48.577Z,13.90
2019-05-19T02:22:18.739Z,13.80
2019-05-19T02:24:48.904Z,13.80
2019-05-19T02:27:19.108Z,13.70
2019-05-19T02:29:49.272Z,13.70
2019-05-19T02:32:19.431Z,13.60
2019-05-19T02:34:49.589Z,13.60
2019-05-19T02:37:19.792Z,13.50
2019-05-19T02:39:49.960Z,13.40
2019-05-19T02:42:20.620Z,13.40
2019-05-19T02:44:52.543Z,13.30
2019-05-19T02:47:24.098Z,13.30
2019-05-19T02:49:57.048Z,13.30
2019-05-19T02:52:28.650Z,13.30
2019-05-19T02:55:01.226Z,13.30
2019-05-19T02:57:32.207Z,13.20
2019-05-19T03:00:02.690Z,13.20
2019-05-19T03:02:32.920Z,13.20
2019-05-19T03:05:03.081Z,13.20
2019-05-19T03:07:33.278Z,13.20
2019-05-19T03:10:03.655Z,13.20
2019-05-19T03:12:34.047Z,13.10
2019-05-19T03:15:04.348Z,13.10
2019-05-19T03:17:35.556Z,12.90
2019-05-19T03:20:05.830Z,12.80
2019-05-19T03:22:36.020Z,12.70
2019-05-19T03:25:06.790Z,12.60
2019-05-19T03:27:36.933Z,12.60
2019-05-19T03:30:24.798Z,12.50
2019-05-19T03:32:59.065Z,12.60
2019-05-19T03:35:29.209Z,12.60
2019-05-19T03:37:59.406Z,12.50
2019-05-19T03:40:29.573Z,12.60
2019-05-19T03:42:59.737Z,12.60
2019-05-19T03:45:29.888Z,12.50
2019-05-19T03:48:00.060Z,12.40
2019-05-19T03:50:30.212Z,12.50
2019-05-19T03:53:00.428Z,12.40
2019-05-19T03:55:30.619Z,12.50
2019-05-19T03:58:00.753Z,12.60
2019-05-19T04:00:30.921Z,12.60
2019-05-19T04:03:01.212Z,12.50
2019-05-19T04:05:31.376Z,12.50
2019-05-19T04:08:01.544Z,12.50
2019-05-19T04:10:31.697Z,12.50
2019-05-19T04:13:01.984Z,12.50
2019-05-19T04:15:32.338Z,12.50
2019-05-19T04:18:02.548Z,12.50
2019-05-19T04:20:32.793Z,12.60
2019-05-19T04:23:02.984Z,12.60
2019-05-19T04:25:33.192Z,12.60
2019-05-19T04:28:03.357Z,12.70
2019-05-19T04:30:33.527Z,12.70
2019-05-19T04:33:03.706Z,12.80
2019-05-19T04:35:34.965Z,12.80
2019-05-19T04:38:05.134Z,12.90
2019-05-19T04:40:35.286Z,13.00
2019-05-19T04:43:05.543Z,13.10
2019-05-19T04:45:35.699Z,13.30
2019-05-19T04:48:09.386Z,13.60
2019-05-19T04:50:37.743Z,13.60
2019-05-19T04:53:07.919Z,13.70
2019-05-19T04:55:38.164Z,13.90
2019-05-19T04:58:08.324Z,14.00
2019-05-19T05:00:38.528Z,14.10
2019-05-19T05:03:08.679Z,14.20
2019-05-19T05:05:38.859Z,14.20
2019-05-19T05:08:27.214Z,14.30
2019-05-19T05:10:41.840Z,14.50
2019-05-19T05:13:13.084Z,14.70
2019-05-19T05:15:43.235Z,14.70
2019-05-19T05:18:13.429Z,14.60
2019-05-19T05:20:43.593Z,14.60
2019-05-19T05:23:13.830Z,14.70
2019-05-19T05:25:44.020Z,14.90
2019-05-19T05:28:14.359Z,15.10
2019-05-19T05:30:44.502Z,15.30
2019-05-19T05:33:14.663Z,15.40
2019-05-19T05:35:44.846Z,15.40
2019-05-19T05:38:15.025Z,15.40
2019-05-19T05:40:45.244Z,15.30
2019-05-19T05:43:15.399Z,15.20
2019-05-19T05:45:45.572Z,15.10
2019-05-19T05:48:15.720Z,15.20
2019-05-19T05:50:48.962Z,15.20
2019-05-19T05:53:19.236Z,15.20
2019-05-19T05:55:49.442Z,15.30
2019-05-19T05:58:19.635Z,15.30
2019-05-19T06:00:49.824Z,15.30
2019-05-19T06:03:19.987Z,15.40
2019-05-19T06:05:51.250Z,15.60
2019-05-19T06:08:23.580Z,15.70
2019-05-19T06:10:55.500Z,15.90
2019-05-19T06:13:53.560Z,16.00
2019-05-19T06:16:24.352Z,16.00
2019-05-19T06:18:56.763Z,16.20
2019-05-19T06:21:26.423Z,16.30
2019-05-19T06:23:56.589Z,16.40
2019-05-19T06:26:26.786Z,16.50
2019-05-19T06:28:56.964Z,16.60
2019-05-19T06:31:27.147Z,16.60
2019-05-19T06:33:57.327Z,16.50
2019-05-19T06:36:27.504Z,16.50
2019-05-19T06:38:57.704Z,16.50
2019-05-19T06:41:28.052Z,16.60
2019-05-19T06:43:58.210Z,16.70
2019-05-19T06:46:28.398Z,16.70
2019-05-19T06:48:58.577Z,16.80
2019-05-19T06:51:28.784Z,16.90
2019-05-19T06:53:58.972Z,16.80
2019-05-19T06:56:29.295Z,16.70
2019-05-19T06:58:59.455Z,16.80
2019-05-19T07:01:29.664Z,16.90
2019-05-19T07:03:59.815Z,17.10
2019-05-19T07:06:30.078Z,17.10
2019-05-19T07:09:00.239Z,17.10
2019-05-19T07:11:30.546Z,17.10
2019-05-19T07:14:03.001Z,17.20
2019-05-19T07:16:32.752Z,17.30
2019-05-19T07:19:02.931Z,17.50
2019-05-19T07:21:33.115Z,17.60
2019-05-19T07:24:03.325Z,17.90
2019-05-19T07:26:33.476Z,18.20
2019-05-19T07:29:03.782Z,18.40
2019-05-19T07:31:33.951Z,18.50
2019-05-19T07:34:04.260Z,18.60
2019-05-19T07:36:35.511Z,18.50
2019-05-19T07:39:07.087Z,18.60
2019-05-19T07:41:37.354Z,18.60
2019-05-19T07:44:07.573Z,18.70
2019-05-19T07:46:37.741Z,18.80
2019-05-19T07:49:07.914Z,18.80
2019-05-19T07:51:39.880Z,18.80
2019-05-19T07:54:10.158Z,18.70
2019-05-19T07:56:40.343Z,18.50
2019-05-19T07:59:10.521Z,18.30
2019-05-19T08:01:40.743Z,18.20
2019-05-19T08:04:10.931Z,18.30
2019-05-19T08:06:41.108Z,18.10
2019-05-19T08:09:11.368Z,18.00
2019-05-19T08:11:41.539Z,18.20
2019-05-19T08:14:14.586Z,18.50
2019-05-19T08:16:44.754Z,18.70
2019-05-19T08:19:15.010Z,19.10
2019-05-19T08:21:45.194Z,19.40
2019-05-19T08:24:15.373Z,19.50
2019-05-19T08:26:45.555Z,19.60
2019-05-19T08:29:15.743Z,19.70
2019-05-19T08:31:45.948Z,19.50
2019-05-19T08:34:16.211Z,19.50
2019-05-19T08:36:46.401Z,19.40
2019-05-19T08:39:16.622Z,19.50
2019-05-19T08:41:46.772Z,19.60
2019-05-19T08:44:18.040Z,19.70
2019-05-19T08:46:48.245Z,19.80
2019-05-19T08:49:18.590Z,19.60
2019-05-19T08:51:48.815Z,19.80
2019-05-19T08:54:19.209Z,20.10
2019-05-19T08:56:49.437Z,20.10
2019-05-19T08:59:19.624Z,20.20
2019-05-19T09:01:52.356Z,20.10
2019-05-19T09:04:22.532Z,20.10
2019-05-19T09:06:52.702Z,20.00
2019-05-19T09:09:22.868Z,20.00
2019-05-19T09:11:53.086Z,20.20
2019-05-19T09:14:23.251Z,20.40
2019-05-19T09:16:53.489Z,20.50
2019-05-19T09:19:23.643Z,20.90
2019-05-19T09:21:53.820Z,21.40
2019-05-19T09:24:30.380Z,21.40
2019-05-19T09:26:55.884Z,21.70
2019-05-19T09:29:26.058Z,22.30
2019-05-19T09:31:56.227Z,22.90
2019-05-19T09:34:26.396Z,23.50
2019-05-19T09:36:56.629Z,23.70
2019-05-19T09:39:26.799Z,24.10
2019-05-19T09:41:56.946Z,24.60
2019-05-19T09:44:27.221Z,24.60
2019-05-19T09:46:57.403Z,24.80
2019-05-19T09:49:34.400Z,24.70
2019-05-19T09:52:06.557Z,24.30
2019-05-19T09:54:44.757Z,23.90
2019-05-19T09:57:08.575Z,23.50
2019-05-19T09:59:38.821Z,23.70
2019-05-19T10:02:09.009Z,24.00
2019-05-19T10:04:39.305Z,24.10
2019-05-19T10:07:09.719Z,24.80
2019-05-19T10:09:56.716Z,25.00
2019-05-19T10:12:27.153Z,24.90
2019-05-19T10:14:57.392Z,24.80
2019-05-19T10:17:27.699Z,25.10
2019-05-19T10:19:57.904Z,25.50
2019-05-19T10:22:28.299Z,25.30
2019-05-19T10:25:18.573Z,25.50
2019-05-19T10:27:31.443Z,25.50
2019-05-19T10:30:01.707Z,25.90
2019-05-19T10:32:32.036Z,26.30
2019-05-19T10:35:03.852Z,26.60
2019-05-19T10:37:34.271Z,26.90
2019-05-19T10:40:05.367Z,27.10
2019-05-19T10:42:35.598Z,26.90
2019-05-19T10:45:07.248Z,27.20
2019-05-19T10:47:37.349Z,27.50
2019-05-19T10:50:07.750Z,27.70
2019-05-19T10:52:38.060Z,28.00
2019-05-19T10:55:08.873Z,27.70
2019-05-19T10:57:39.127Z,27.90
2019-05-19T11:00:09.710Z,27.70
2019-05-19T11:02:39.908Z,27.90
2019-05-19T11:05:11.323Z,28.20
2019-05-19T11:07:41.825Z,28.30
2019-05-19T11:10:12.331Z,28.10
2019-05-19T11:12:42.512Z,28.90
2019-05-19T11:15:13.253Z,29.00
2019-05-19T11:17:43.420Z,29.50
2019-05-19T11:20:13.680Z,29.30
2019-05-19T11:22:43.916Z,29.00
2019-05-19T11:25:14.297Z,28.10
2019-05-19T11:27:44.500Z,27.90
2019-05-19T11:30:15.958Z,28.20
2019-05-19T11:32:46.124Z,28.10
2019-05-19T11:35:16.461Z,28.40
2019-05-19T11:37:46.625Z,28.30
2019-05-19T11:40:16.867Z,28.10
2019-05-19T11:42:47.111Z,28.20
2019-05-19T11:45:17.534Z,27.70
2019-05-19T11:47:47.721Z,27.30
2019-05-19T11:50:18.343Z,27.40
2019-05-19T11:52:48.601Z,27.70
2019-05-19T11:55:20.745Z,27.80
2019-05-19T11:57:50.915Z,28.00
2019-05-19T12:00:21.204Z,28.10
2019-05-19T12:02:51.445Z,28.50
2019-05-19T12:05:21.856Z,28.60
2019-05-19T12:07:52.087Z,28.40
2019-05-19T12:10:22.528Z,28.10
2019-05-19T12:12:52.692Z,28.10
2019-05-19T12:15:23.097Z,27.70
2019-05-19T12:17:53.375Z,27.70
2019-05-19T12:20:23.618Z,28.60
2019-05-19T12:22:53.777Z,29.10
2019-05-19T12:25:25.192Z,28.90
2019-05-19T12:27:55.456Z,28.40
2019-05-19T12:30:25.720Z,28.50
2019-05-19T12:32:59.206Z,28.60
2019-05-19T12:35:27.844Z,28.80
2019-05-19T12:37:58.031Z,28.60
2019-05-19T12:40:28.329Z,28.20
2019-05-19T12:42:58.565Z,28.10
2019-05-19T12:45:28.945Z,27.60
2019-05-19T12:47:59.219Z,27.20
2019-05-19T12:50:29.367Z,27.90
2019-05-19T12:52:59.639Z,28.00
2019-05-19T12:55:29.888Z,28.60
2019-05-19T12:58:00.044Z,28.30
2019-05-19T13:00:30.232Z,27.90
2019-05-19T13:03:00.445Z,27.70
2019-05-19T13:05:30.645Z,27.50
2019-05-19T13:08:00.808Z,27.30
2019-05-19T13:10:31.024Z,27.10
2019-05-19T13:13:01.181Z,27.30
2019-05-19T13:15:31.336Z,27.40
2019-05-19T13:18:01.489Z,27.70
2019-05-19T13:20:31.632Z,27.50
2019-05-19T13:23:01.896Z,28.10
2019-05-19T13:25:32.060Z,28.20
2019-05-19T13:28:03.309Z,28.60
2019-05-19T13:30:33.558Z,28.10
2019-05-19T13:33:03.750Z,27.60
2019-05-19T13:35:33.930Z,27.40
2019-05-19T13:38:04.253Z,27.70
2019-05-19T13:40:34.392Z,27.30
2019-05-19T13:43:06.474Z,26.00
2019-05-19T13:45:36.631Z,25.50
2019-05-19T13:48:06.813Z,24.90
2019-05-19T13:50:37.120Z,24.70
2019-05-19T13:53:07.253Z,24.60
2019-05-19T13:55:37.447Z,24.70
2019-05-19T13:58:07.671Z,24.80
2019-05-19T14:00:37.815Z,24.70
2019-05-19T14:03:09.634Z,24.30
2019-05-19T14:05:40.880Z,24.20
2019-05-19T14:08:11.068Z,24.20
2019-05-19T14:10:41.208Z,24.10
2019-05-19T14:13:11.344Z,24.00
2019-05-19T14:15:42.213Z,24.00
2019-05-19T14:18:12.387Z,23.90
2019-05-19T14:20:42.535Z,23.90
2019-05-19T14:23:12.707Z,23.80
2019-05-19T14:25:42.871Z,23.70
2019-05-19T14:28:13.412Z,23.70
2019-05-19T14:30:43.602Z,23.80
2019-05-19T14:33:13.978Z,23.80
2019-05-19T14:35:44.116Z,23.90
2019-05-19T14:38:14.295Z,24.20
2019-05-19T14:40:44.915Z,24.10
2019-05-19T14:43:15.556Z,24.10
2019-05-19T14:45:45.791Z,24.00
2019-05-19T14:48:15.998Z,23.50
2019-05-19T14:50:46.187Z,22.20
2019-05-19T14:53:16.383Z,20.80
2019-05-19T14:55:46.590Z,19.90
2019-05-19T14:58:16.808Z,19.40
2019-05-19T15:00:47.911Z,18.20
2019-05-19T15:03:18.999Z,16.80
2019-05-19T15:05:49.283Z,16.10
2019-05-19T15:08:19.541Z,15.50
2019-05-19T15:10:49.760Z,15.00
2019-05-19T15:13:21.051Z,14.60
2019-05-19T15:15:51.278Z,14.50
2019-05-19T15:18:21.456Z,14.40
2019-05-19T15:20:51.640Z,14.50
2019-05-19T15:23:22.022Z,14.40
2019-05-19T15:25:52.252Z,14.40
2019-05-19T15:28:23.535Z,14.40
2019-05-19T15:30:54.923Z,14.40
2019-05-19T15:33:25.130Z,14.40
2019-05-19T15:35:55.528Z,14.40
2019-05-19T15:38:25.805Z,14.50
2019-05-19T15:40:56.068Z,14.60
2019-05-19T15:43:27.616Z,14.60
2019-05-19T15:45:57.879Z,14.80
2019-05-19T15:48:28.082Z,14.90
2019-05-19T15:50:58.311Z,14.90
2019-05-19T15:53:28.660Z,15.00
2019-05-19T15:55:58.856Z,15.00
2019-05-19T15:58:29.017Z,15.10
2019-05-19T16:00:59.173Z,15.10
2019-05-19T16:03:29.437Z,15.00
2019-05-19T16:05:59.625Z,15.00
2019-05-19T16:08:29.846Z,15.00
2019-05-19T16:11:00.091Z,15.00
2019-05-19T16:13:30.303Z,15.00
2019-05-19T16:16:00.536Z,15.00
2019-05-19T16:18:30.748Z,15.10
2019-05-19T16:21:01.039Z,15.10
2019-05-19T16:23:31.362Z,15.20
2019-05-19T16:26:01.701Z,15.30
2019-05-19T16:28:32.021Z,15.20
2019-05-19T16:31:02.334Z,15.30
2019-05-19T16:33:33.587Z,15.30
2019-05-19T16:36:03.795Z,15.40
2019-05-19T16:38:34.263Z,15.50
2019-05-19T16:41:04.507Z,15.50
2019-05-19T16:43:34.805Z,15.50
2019-05-19T16:46:04.993Z,15.40
2019-05-19T16:48:35.371Z,15.50
2019-05-19T16:51:05.626Z,15.60
2019-05-19T16:53:35.847Z,15.70
2019-05-19T16:56:06.123Z,15.70
2019-05-19T16:58:44.976Z,15.70
2019-05-19T17:01:08.197Z,15.70
2019-05-19T17:03:38.394Z,15.80
2019-05-19T17:06:08.670Z,15.80
2019-05-19T17:08:39.072Z,15.80
2019-05-19T17:11:18.083Z,15.80
2019-05-19T17:13:41.587Z,15.80
2019-05-19T17:16:11.792Z,15.80
2019-05-19T17:18:42.086Z,15.80
2019-05-19T17:21:12.349Z,15.80
2019-05-19T17:23:42.624Z,15.70
2019-05-19T17:26:12.879Z,15.80
2019-05-19T17:28:43.084Z,15.80
2019-05-19T17:31:13.270Z,15.80
2019-05-19T17:33:44.739Z,15.90
2019-05-19T17:36:14.917Z,15.90
2019-05-19T17:38:45.140Z,15.90
2019-05-19T17:41:15.392Z,15.90
2019-05-19T17:43:45.688Z,15.90
2019-05-19T17:46:15.901Z,15.90
2019-05-19T17:48:46.239Z,15.90
2019-05-19T17:51:16.513Z,15.90
2019-05-19T17:53:46.788Z,15.80
2019-05-19T17:56:17.094Z,15.80
2019-05-19T17:58:47.973Z,15.70
2019-05-19T18:01:18.167Z,15.70
2019-05-19T18:03:49.172Z,15.60
2019-05-19T18:06:19.403Z,15.60
2019-05-19T18:08:49.600Z,15.60
2019-05-19T18:11:19.804Z,15.60
2019-05-19T18:13:50.000Z,15.60
2019-05-19T18:16:20.229Z,15.60
2019-05-19T18:18:50.485Z,15.60
2019-05-19T18:21:20.673Z,15.50
2019-05-19T18:23:50.868Z,15.40
2019-05-19T18:26:21.117Z,15.40
2019-05-19T18:28:51.284Z,15.40
2019-05-19T18:31:21.492Z,15.40
2019-05-19T18:33:51.768Z,15.40
2019-05-19T18:36:21.969Z,15.40
2019-05-19T18:38:52.223Z,15.40
2019-05-19T18:41:22.410Z,15.40
2019-05-19T18:43:52.605Z,15.40
2019-05-19T18:46:22.802Z,15.40
2019-05-19T18:48:53.004Z,15.40
2019-05-19T18:51:23.171Z,15.30
2019-05-19T18:53:53.375Z,15.40
2019-05-19T18:56:23.584Z,15.40
2019-05-19T18:58:53.770Z,15.40
2019-05-19T19:01:24.056Z,15.40
2019-05-19T19:03:54.345Z,15.40
2019-05-19T19:06:26.228Z,15.40
2019-05-19T19:08:56.443Z,15.40
2019-05-19T19:11:26.817Z,15.40
2019-05-19T19:13:57.156Z,15.40
2019-05-19T19:16:28.800Z,15.50
2019-05-19T19:18:59.039Z,15.40
2019-05-19T19:21:32.180Z,15.40
2019-05-19T19:24:04.241Z,15.40
2019-05-19T19:26:34.433Z,15.40
2019-05-19T19:29:04.629Z,15.40
2019-05-19T19:31:47.691Z,15.40
2019-05-19T19:34:06.756Z,15.40
2019-05-19T19:36:36.947Z,15.40
2019-05-19T19:39:07.846Z,15.40
2019-05-19T19:41:38.228Z,15.40
2019-05-19T19:44:08.564Z,15.40
2019-05-19T19:46:38.808Z,15.50
2019-05-19T19:49:09.041Z,15.40
2019-05-19T19:51:39.221Z,15.40
2019-05-19T19:54:09.505Z,15.40
2019-05-19T19:56:39.848Z,15.40
2019-05-19T19:59:10.163Z,15.40
2019-05-19T20:01:40.371Z,15.40
2019-05-19T20:04:10.762Z,15.40
2019-05-19T20:06:40.960Z,15.40
2019-05-19T20:09:11.125Z,15.40
2019-05-19T20:11:41.403Z,15.40
2019-05-19T20:14:11.590Z,15.30
2019-05-19T20:16:43.429Z,15.30
2019-05-19T20:19:13.709Z,15.20
2019-05-19T20:21:43.948Z,15.20
2019-05-19T20:24:14.217Z,15.20
2019-05-19T20:26:44.415Z,15.10
2019-05-19T20:29:14.732Z,15.10
2019-05-19T20:31:44.954Z,15.00
2019-05-19T20:34:15.271Z,14.90
2019-05-19T20:36:45.571Z,14.90
2019-05-19T20:39:15.774Z,14.90
2019-05-19T20:41:46.018Z,14.80
2019-05-19T20:44:17.517Z,14.70
2019-05-19T20:46:47.791Z,14.60
2019-05-19T20:49:17.963Z,14.60
2019-05-19T20:51:48.151Z,14.50
2019-05-19T20:54:18.328Z,14.40
2019-05-19T20:56:48.573Z,14.40
2019-05-19T20:59:18.767Z,14.40
2019-05-19T21:01:49.048Z,14.40
2019-05-19T21:04:19.274Z,14.30
2019-05-19T21:06:49.610Z,14.30
2019-05-19T21:09:19.843Z,14.20
2019-05-19T21:11:50.279Z,14.10
2019-05-19T21:14:20.565Z,14.10
2019-05-19T21:16:50.726Z,14.00
2019-05-19T21:19:22.569Z,14.00
2019-05-19T21:21:52.828Z,14.00
2019-05-19T21:24:23.045Z,13.90
2019-05-19T21:26:53.235Z,13.90
2019-05-19T21:29:23.439Z,13.90
2019-05-19T21:31:53.583Z,13.80
2019-05-19T21:34:23.782Z,13.70
2019-05-19T21:36:54.131Z,13.80
2019-05-19T21:39:24.365Z,13.80
2019-05-19T21:41:54.510Z,13.80
2019-05-19T21:44:24.711Z,13.70
2019-05-19T21:46:54.852Z,13.70
2019-05-19T21:49:25.075Z,13.60
2019-05-19T21:51:55.247Z,13.40
2019-05-19T21:54:25.470Z,13.30
2019-05-19T21:56:55.775Z,13.30
2019-05-19T21:59:26.047Z,13.30
2019-05-19T22:01:56.213Z,13.30
2019-05-19T22:04:26.434Z,13.20
2019-05-19T22:07:04.350Z,13.10
2019-05-19T22:09:34.604Z,13.00
2019-05-19T22:12:04.941Z,13.00
2019-05-19T22:14:35.162Z,12.90
2019-05-19T22:17:05.423Z,12.80
2019-05-19T22:19:35.578Z,12.80
2019-05-19T22:22:05.943Z,12.70
2019-05-19T22:24:36.069Z,12.60
2019-05-19T22:27:06.304Z,12.60
2019-05-19T22:29:36.524Z,12.60
2019-05-19T22:32:06.743Z,12.70
2019-05-19T22:34:36.910Z,12.60
2019-05-19T22:37:07.106Z,12.70
2019-05-19T22:39:37.336Z,12.70
2019-05-19T22:42:07.513Z,12.60
2019-05-19T22:44:37.758Z,12.50
2019-05-19T22:47:07.945Z,12.50
2019-05-19T22:49:38.115Z,12.50
2019-05-19T22:52:08.283Z,12.40
2019-05-19T22:54:38.472Z,12.40
2019-05-19T22:57:08.716Z,12.50
2019-05-19T22:59:38.915Z,12.40
2019-05-19T23:02:09.433Z,12.30
2019-05-19T23:04:39.772Z,12.40
2019-05-19T23:07:09.979Z,12.30
2019-05-19T23:09:40.354Z,12.30
2019-05-19T23:12:10.507Z,12.30
2019-05-19T23:14:40.901Z,12.20
2019-05-19T23:17:11.043Z,12.20
2019-05-19T23:19:41.335Z,12.10
2019-05-19T23:22:11.495Z,12.20
2019-05-19T23:24:41.663Z,12.20
2019-05-19T23:27:12.900Z,12.20
2019-05-19T23:29:43.071Z,12.20
2019-05-19T23:32:13.228Z,12.20
2019-05-19T23:34:43.414Z,12.20
2019-05-19T23:37:14.673Z,12.10
2019-05-19T23:39:44.902Z,12.10
2019-05-19T23:42:15.065Z,12.10
2019-05-19T23:44:45.339Z,12.10
2019-05-19T23:47:15.520Z,12.10
2019-05-19T23:49:45.725Z,12.00
2019-05-19T23:52:15.993Z,12.00
2019-05-19T23:54:46.139Z,12.10
2019-05-19T23:57:16.304Z,12.20
2019-05-19T23:59:46.487Z,12.30
